createdAt,value
2018-04-30T00:00:53.004Z,4.00
2018-04-30T00:01:52.989Z,3.50
2018-04-30T00:02:52.950Z,3.60
2018-04-30T00:03:52.928Z,4.20
2018-04-30T00:04:52.927Z,4.10
2018-04-30T00:05:52.902Z,4.10
2018-04-30T00:06:52.854Z,4.10
2018-04-30T00:07:52.846Z,4.60
2018-04-30T00:08:52.851Z,3.90
2018-04-30T00:09:52.786Z,4.10
2018-04-30T00:10:52.752Z,4.00
2018-04-30T00:11:52.756Z,4.00
2018-04-30T00:12:52.714Z,4.70
2018-04-30T00:13:52.693Z,3.80
2018-04-30T00:14:52.689Z,4.20
2018-04-30T00:15:52.653Z,6.00
2018-04-30T00:16:52.634Z,4.00
2018-04-30T00:17:52.612Z,4.20
2018-04-30T00:18:52.577Z,11.60
2018-04-30T00:19:52.547Z,4.90
2018-04-30T00:20:52.535Z,5.10
2018-04-30T00:21:52.538Z,6.50
2018-04-30T00:22:52.476Z,4.20
2018-04-30T00:23:52.450Z,5.00
2018-04-30T00:24:52.467Z,5.10
2018-04-30T00:25:52.445Z,5.10
2018-04-30T00:26:52.375Z,5.60
2018-04-30T00:27:52.356Z,5.80
2018-04-30T00:28:52.336Z,22.50
2018-04-30T00:29:52.305Z,15.20
2018-04-30T00:30:52.294Z,8.00
2018-04-30T00:31:52.456Z,9.40
2018-04-30T00:32:52.243Z,12.90
2018-04-30T00:33:52.220Z,9.50
2018-04-30T00:34:52.204Z,7.90
2018-04-30T00:35:52.199Z,7.20
2018-04-30T00:36:52.148Z,10.40
2018-04-30T00:37:52.123Z,7.80
2018-04-30T00:38:52.095Z,7.00
2018-04-30T00:39:52.075Z,7.30
2018-04-30T00:40:52.066Z,7.80
2018-04-30T00:41:52.037Z,8.20
2018-04-30T00:42:52.012Z,7.20
2018-04-30T00:43:51.987Z,9.80
2018-04-30T00:44:51.974Z,14.30
2018-04-30T00:45:51.949Z,13.60
2018-04-30T00:46:51.906Z,13.50
2018-04-30T00:47:51.889Z,13.60
2018-04-30T00:48:51.892Z,10.60
2018-04-30T00:49:51.843Z,10.50
2018-04-30T00:50:51.881Z,11.00
2018-04-30T00:51:51.810Z,14.10
2018-04-30T00:52:51.768Z,9.90
2018-04-30T00:53:51.746Z,11.20
2018-04-30T00:54:51.766Z,13.20
2018-04-30T00:55:51.692Z,10.10
2018-04-30T00:56:51.664Z,12.70
2018-04-30T00:57:51.751Z,12.70
2018-04-30T00:58:51.620Z,13.60
2018-04-30T00:59:51.606Z,11.30
2018-04-30T01:00:51.592Z,10.60
2018-04-30T01:01:51.576Z,10.50
2018-04-30T01:02:51.512Z,8.80
2018-04-30T01:03:51.489Z,9.80
2018-04-30T01:04:51.491Z,10.80
2018-04-30T01:05:51.440Z,9.10
2018-04-30T01:06:51.422Z,8.60
2018-04-30T01:07:51.407Z,9.50
2018-04-30T01:08:51.361Z,10.20
2018-04-30T01:09:51.353Z,9.50
2018-04-30T01:10:51.354Z,9.50
2018-04-30T01:11:51.295Z,10.40
2018-04-30T01:12:51.279Z,9.90
2018-04-30T01:13:51.260Z,9.40
2018-04-30T01:14:51.266Z,9.40
2018-04-30T01:15:51.242Z,10.50
2018-04-30T01:16:51.192Z,9.80
2018-04-30T01:17:51.181Z,8.60
2018-04-30T01:18:51.152Z,9.50
2018-04-30T01:19:51.096Z,10.40
2018-04-30T01:20:51.126Z,9.30
2018-04-30T01:21:51.070Z,9.00
2018-04-30T01:22:51.027Z,9.50
2018-04-30T01:23:51.347Z,10.40
2018-04-30T01:24:50.960Z,8.40
2018-04-30T01:25:50.950Z,10.00
2018-04-30T01:26:50.940Z,9.20
2018-04-30T01:27:50.926Z,10.70
2018-04-30T01:28:50.862Z,9.50
2018-04-30T01:29:50.857Z,9.90
2018-04-30T01:30:50.847Z,10.50
2018-04-30T01:31:50.797Z,9.90
2018-04-30T01:32:50.784Z,10.20
2018-04-30T01:33:50.757Z,9.80
2018-04-30T01:34:50.701Z,10.60
2018-04-30T01:35:50.695Z,9.80
2018-04-30T01:36:50.674Z,9.00
2018-04-30T01:37:50.636Z,9.50
2018-04-30T01:38:50.620Z,11.30
2018-04-30T01:39:50.605Z,9.00
2018-04-30T01:40:50.556Z,10.60
2018-04-30T01:41:50.545Z,10.20
2018-04-30T01:42:50.537Z,10.50
2018-04-30T01:43:50.482Z,9.60
2018-04-30T01:44:50.451Z,10.60
2018-04-30T01:45:50.447Z,10.70
2018-04-30T01:46:50.405Z,9.70
2018-04-30T01:47:50.389Z,10.10
2018-04-30T01:48:50.377Z,11.00
2018-04-30T01:49:50.370Z,9.70
2018-04-30T01:50:50.313Z,10.10
2018-04-30T01:51:50.289Z,9.40
2018-04-30T01:52:50.279Z,9.80
2018-04-30T01:53:50.224Z,9.00
2018-04-30T01:54:50.213Z,8.70
2018-04-30T01:55:50.240Z,10.20
2018-04-30T01:56:50.151Z,10.00
2018-04-30T01:57:50.133Z,9.60
2018-04-30T01:58:50.124Z,9.20
2018-04-30T01:59:50.116Z,9.60
2018-04-30T02:00:50.046Z,9.30
2018-04-30T02:01:50.032Z,10.30
2018-04-30T02:02:49.996Z,10.00
2018-04-30T02:03:49.988Z,9.10
2018-04-30T02:04:49.996Z,10.30
2018-04-30T02:05:49.914Z,9.50
2018-04-30T02:06:49.895Z,9.60
2018-04-30T02:07:49.884Z,9.80
2018-04-30T02:08:49.863Z,10.30
2018-04-30T02:09:49.824Z,9.20
2018-04-30T02:10:49.819Z,9.50
2018-04-30T02:11:49.770Z,10.10
2018-04-30T02:12:49.767Z,9.00
2018-04-30T02:13:49.727Z,9.30
2018-04-30T02:14:49.730Z,9.50
2018-04-30T02:15:49.675Z,9.00
2018-04-30T02:16:49.657Z,10.20
2018-04-30T02:17:49.645Z,9.70
2018-04-30T02:18:51.243Z,9.80
2018-04-30T02:19:51.212Z,9.80
2018-04-30T02:20:49.576Z,9.60
2018-04-30T02:21:49.540Z,9.90
2018-04-30T02:22:49.501Z,9.80
2018-04-30T02:23:49.488Z,10.00
2018-04-30T02:24:49.453Z,9.50
2018-04-30T02:25:49.420Z,9.20
2018-04-30T02:26:49.400Z,9.90
2018-04-30T02:27:49.388Z,9.80
2018-04-30T02:28:49.355Z,10.60
2018-04-30T02:29:49.319Z,8.90
2018-04-30T02:30:49.308Z,9.90
2018-04-30T02:31:49.265Z,9.20
2018-04-30T02:32:49.260Z,9.90
2018-04-30T02:33:49.241Z,10.00
2018-04-30T02:34:49.195Z,9.80
2018-04-30T02:35:49.163Z,10.10
2018-04-30T02:36:49.157Z,8.70
2018-04-30T02:37:49.111Z,10.80
2018-04-30T02:38:49.090Z,8.90
2018-04-30T02:39:49.088Z,9.70
2018-04-30T02:40:49.038Z,10.20
2018-04-30T02:41:49.017Z,9.00
2018-04-30T02:42:48.988Z,10.20
2018-04-30T02:43:48.973Z,9.80
2018-04-30T02:44:48.936Z,9.70
2018-04-30T02:45:48.944Z,10.50
2018-04-30T02:46:48.896Z,9.30
2018-04-30T02:47:48.862Z,10.50
2018-04-30T02:48:48.842Z,10.60
2018-04-30T02:49:48.852Z,9.40
2018-04-30T02:50:48.797Z,10.30
2018-04-30T02:51:48.767Z,9.90
2018-04-30T02:52:48.770Z,9.20
2018-04-30T02:53:48.714Z,9.20
2018-04-30T02:54:48.708Z,10.40
2018-04-30T02:55:48.691Z,9.40
2018-04-30T02:56:48.635Z,10.40
2018-04-30T02:57:48.616Z,9.80
2018-04-30T02:58:48.618Z,10.50
2018-04-30T02:59:48.557Z,9.70
2018-04-30T03:00:48.543Z,9.90
2018-04-30T03:01:48.544Z,10.00
2018-04-30T03:02:48.491Z,9.60
2018-04-30T03:03:48.462Z,9.60
2018-04-30T03:04:48.445Z,9.90
2018-04-30T03:05:48.413Z,9.60
2018-04-30T03:06:48.392Z,9.70
2018-04-30T03:07:48.436Z,9.60
2018-04-30T03:08:48.342Z,9.70
2018-04-30T03:09:48.324Z,9.60
2018-04-30T03:10:48.301Z,9.80
2018-04-30T03:11:48.273Z,10.40
2018-04-30T03:12:48.237Z,9.50
2018-04-30T03:13:48.230Z,9.60
2018-04-30T03:14:48.219Z,10.10
2018-04-30T03:15:48.165Z,10.10
2018-04-30T03:16:48.143Z,9.70
2018-04-30T03:17:48.113Z,9.80
2018-04-30T03:18:48.084Z,9.70
2018-04-30T03:19:48.064Z,10.20
2018-04-30T03:20:48.029Z,8.90
2018-04-30T03:21:48.025Z,9.60
2018-04-30T03:22:47.987Z,9.70
2018-04-30T03:23:47.991Z,9.90
2018-04-30T03:24:47.952Z,10.30
2018-04-30T03:25:47.921Z,10.60
2018-04-30T03:26:47.896Z,9.70
2018-04-30T03:27:47.881Z,11.10
2018-04-30T03:28:47.833Z,10.60
2018-04-30T03:29:47.825Z,9.90
2018-04-30T03:30:47.800Z,9.80
2018-04-30T03:31:47.775Z,11.00
2018-04-30T03:32:47.753Z,10.20
2018-04-30T03:33:47.716Z,10.70
2018-04-30T03:34:47.695Z,10.20
2018-04-30T03:35:47.659Z,10.10
2018-04-30T03:36:47.653Z,9.60
2018-04-30T03:37:47.621Z,9.80
2018-04-30T03:38:47.590Z,10.20
2018-04-30T03:39:47.582Z,10.00
2018-04-30T03:40:47.532Z,9.60
2018-04-30T03:41:47.524Z,9.80
2018-04-30T03:42:47.483Z,11.50
2018-04-30T03:43:47.486Z,10.40
2018-04-30T03:44:47.461Z,10.50
2018-04-30T03:45:47.408Z,11.00
2018-04-30T03:46:47.398Z,10.40
2018-04-30T03:47:47.373Z,10.20
2018-04-30T03:48:47.335Z,10.70
2018-04-30T03:49:47.332Z,10.30
2018-04-30T03:50:47.293Z,10.60
2018-04-30T03:51:47.277Z,11.00
2018-04-30T03:52:47.251Z,10.90
2018-04-30T03:53:47.212Z,10.60
2018-04-30T03:54:47.180Z,11.00
2018-04-30T03:55:47.164Z,9.50
2018-04-30T03:56:47.166Z,10.40
2018-04-30T03:57:47.166Z,10.00
2018-04-30T03:58:47.083Z,11.10
2018-04-30T03:59:47.075Z,11.20
2018-04-30T04:00:47.036Z,11.10
2018-04-30T04:01:47.049Z,11.00
2018-04-30T04:02:47.003Z,10.90
2018-04-30T04:03:46.952Z,10.50
2018-04-30T04:04:46.938Z,10.70
2018-04-30T04:05:46.938Z,10.20
2018-04-30T04:06:46.902Z,11.00
2018-04-30T04:07:46.856Z,11.00
2018-04-30T04:08:46.835Z,12.10
2018-04-30T04:09:46.808Z,11.10
2018-04-30T04:10:46.796Z,10.40
2018-04-30T04:11:46.788Z,10.40
2018-04-30T04:12:46.834Z,10.50
2018-04-30T04:13:46.745Z,10.00
2018-04-30T04:14:46.713Z,11.10
2018-04-30T04:15:46.652Z,10.30
2018-04-30T04:16:46.678Z,10.60
2018-04-30T04:17:46.609Z,11.10
2018-04-30T04:18:46.589Z,10.80
2018-04-30T04:19:46.572Z,9.80
2018-04-30T04:20:46.529Z,11.40
2018-04-30T04:21:46.526Z,10.70
2018-04-30T04:22:46.501Z,10.10
2018-04-30T04:23:46.459Z,11.60
2018-04-30T04:24:46.434Z,10.30
2018-04-30T04:25:46.439Z,10.40
2018-04-30T04:26:46.385Z,10.60
2018-04-30T04:27:46.378Z,10.80
2018-04-30T04:28:46.350Z,12.00
2018-04-30T04:29:46.307Z,11.80
2018-04-30T04:30:46.284Z,10.80
2018-04-30T04:31:46.262Z,11.60
2018-04-30T04:32:46.286Z,11.90
2018-04-30T04:33:47.678Z,12.60
2018-04-30T04:34:47.595Z,11.80
2018-04-30T04:35:47.438Z,11.60
2018-04-30T04:36:46.636Z,11.10
2018-04-30T04:37:47.753Z,10.20
2018-04-30T04:38:47.644Z,11.10
2018-04-30T04:39:46.674Z,11.90
2018-04-30T04:40:46.579Z,11.90
2018-04-30T04:41:46.103Z,11.80
2018-04-30T04:42:45.996Z,11.40
2018-04-30T04:43:45.972Z,11.20
2018-04-30T04:44:45.966Z,11.20
2018-04-30T04:45:45.952Z,11.50
2018-04-30T04:46:45.882Z,11.90
2018-04-30T04:47:45.864Z,12.90
2018-04-30T04:48:45.838Z,11.40
2018-04-30T04:49:45.872Z,11.10
2018-04-30T04:50:45.796Z,11.70
2018-04-30T04:51:45.782Z,10.90
2018-04-30T04:52:45.735Z,12.50
2018-04-30T04:53:45.720Z,10.90
2018-04-30T04:54:45.714Z,11.60
2018-04-30T04:55:45.664Z,11.30
2018-04-30T04:56:45.640Z,10.80
2018-04-30T04:57:45.650Z,10.90
2018-04-30T04:58:45.633Z,11.60
2018-04-30T04:59:45.567Z,11.30
2018-04-30T05:00:45.564Z,11.20
2018-04-30T05:01:45.549Z,10.90
2018-04-30T05:02:45.499Z,11.20
2018-04-30T05:03:45.517Z,11.30
2018-04-30T05:04:45.466Z,12.20
2018-04-30T05:05:45.420Z,11.80
2018-04-30T05:06:45.432Z,11.20
2018-04-30T05:07:45.399Z,11.20
2018-04-30T05:08:45.344Z,11.70
2018-04-30T05:09:45.343Z,10.70
2018-04-30T05:10:45.309Z,11.00
2018-04-30T05:11:45.273Z,11.70
2018-04-30T05:12:45.248Z,12.10
2018-04-30T05:13:45.254Z,11.20
2018-04-30T05:14:45.233Z,11.10
2018-04-30T05:15:45.166Z,11.50
2018-04-30T05:16:45.171Z,10.10
2018-04-30T05:17:45.160Z,11.10
2018-04-30T05:18:45.097Z,11.50
2018-04-30T05:19:45.095Z,11.10
2018-04-30T05:20:45.078Z,11.60
2018-04-30T05:21:45.022Z,10.70
2018-04-30T05:22:45.018Z,11.30
2018-04-30T05:23:44.981Z,11.40
2018-04-30T05:24:44.953Z,12.50
2018-04-30T05:25:44.949Z,11.50
2018-04-30T05:26:44.949Z,11.40
2018-04-30T05:27:44.889Z,12.00
2018-04-30T05:28:44.869Z,12.00
2018-04-30T05:29:44.939Z,11.40
2018-04-30T05:30:44.819Z,11.20
2018-04-30T05:31:45.054Z,12.40
2018-04-30T05:32:44.846Z,11.30
2018-04-30T05:33:44.830Z,13.10
2018-04-30T05:34:44.715Z,12.00
2018-04-30T05:35:44.687Z,11.60
2018-04-30T05:36:44.682Z,12.80
2018-04-30T05:37:44.658Z,12.20
2018-04-30T05:38:44.632Z,21.80
2018-04-30T05:39:44.610Z,24.00
2018-04-30T05:40:44.628Z,14.30
2018-04-30T05:41:44.558Z,17.40
2018-04-30T05:42:44.639Z,13.00
2018-04-30T05:43:44.512Z,15.00
2018-04-30T05:44:45.146Z,19.30
2018-04-30T05:45:44.460Z,18.40
2018-04-30T05:46:44.428Z,14.40
2018-04-30T05:47:44.376Z,15.10
2018-04-30T05:48:44.377Z,14.10
2018-04-30T05:49:44.353Z,14.20
2018-04-30T05:50:44.328Z,14.20
2018-04-30T05:51:44.290Z,11.40
2018-04-30T05:52:44.297Z,12.60
2018-04-30T05:53:44.264Z,13.30
2018-04-30T05:54:44.270Z,13.10
2018-04-30T05:55:44.199Z,11.20
2018-04-30T05:56:44.187Z,12.00
2018-04-30T05:57:44.143Z,13.50
2018-04-30T05:58:44.132Z,11.60
2018-04-30T05:59:44.115Z,11.70
2018-04-30T06:00:44.068Z,12.40
2018-04-30T06:01:44.047Z,11.10
2018-04-30T06:02:44.040Z,12.80
2018-04-30T06:03:43.992Z,13.00
2018-04-30T06:04:43.993Z,15.10
2018-04-30T06:05:43.975Z,18.30
2018-04-30T06:06:44.025Z,17.60
2018-04-30T06:07:43.907Z,19.40
2018-04-30T06:08:43.877Z,25.40
2018-04-30T06:09:43.871Z,23.90
2018-04-30T06:10:43.825Z,20.00
2018-04-30T06:11:43.826Z,14.30
2018-04-30T06:12:43.797Z,16.60
2018-04-30T06:13:43.799Z,18.20
2018-04-30T06:14:43.727Z,14.60
2018-04-30T06:15:43.703Z,18.00
2018-04-30T06:16:43.696Z,23.90
2018-04-30T06:17:43.651Z,25.90
2018-04-30T06:18:43.629Z,18.80
2018-04-30T06:19:43.667Z,20.60
2018-04-30T06:20:43.664Z,24.50
2018-04-30T06:21:43.572Z,14.90
2018-04-30T06:22:43.555Z,18.40
2018-04-30T06:23:43.559Z,17.70
2018-04-30T06:24:43.533Z,17.40
2018-04-30T06:25:43.541Z,18.60
2018-04-30T06:26:43.569Z,20.80
2018-04-30T06:27:43.434Z,22.20
2018-04-30T06:28:43.404Z,15.60
2018-04-30T06:29:43.389Z,15.40
2018-04-30T06:30:43.350Z,12.20
2018-04-30T06:31:44.405Z,13.40
2018-04-30T06:32:44.282Z,13.90
2018-04-30T06:33:43.460Z,15.60
2018-04-30T06:34:43.406Z,12.90
2018-04-30T06:35:43.350Z,16.20
2018-04-30T06:36:43.876Z,14.10
2018-04-30T06:37:43.353Z,14.10
2018-04-30T06:38:43.162Z,13.00
2018-04-30T06:39:43.142Z,15.40
2018-04-30T06:40:43.147Z,16.80
2018-04-30T06:41:43.100Z,13.70
2018-04-30T06:42:43.116Z,14.40
2018-04-30T06:43:43.064Z,15.20
2018-04-30T06:44:43.053Z,15.40
2018-04-30T06:45:43.030Z,12.80
2018-04-30T06:46:42.965Z,26.70
2018-04-30T06:47:42.932Z,20.50
2018-04-30T06:48:42.931Z,23.90
2018-04-30T06:49:42.917Z,13.70
2018-04-30T06:50:42.932Z,13.50
2018-04-30T06:51:42.910Z,13.10
2018-04-30T06:52:42.844Z,16.30
2018-04-30T06:53:42.786Z,16.10
2018-04-30T06:54:42.808Z,20.10
2018-04-30T06:55:42.779Z,19.50
2018-04-30T06:56:42.749Z,11.90
2018-04-30T06:57:42.725Z,13.50
2018-04-30T06:58:42.671Z,22.20
2018-04-30T06:59:42.700Z,24.60
2018-04-30T07:00:42.613Z,18.30
2018-04-30T07:01:42.642Z,13.70
2018-04-30T07:02:42.627Z,12.90
2018-04-30T07:03:42.541Z,11.80
2018-04-30T07:04:42.539Z,13.60
2018-04-30T07:05:42.524Z,14.10
2018-04-30T07:06:42.512Z,12.40
2018-04-30T07:07:42.518Z,13.10
2018-04-30T07:08:42.463Z,12.20
2018-04-30T07:09:42.671Z,13.10
2018-04-30T07:10:42.413Z,10.40
2018-04-30T07:11:42.386Z,10.50
2018-04-30T07:12:42.385Z,14.90
2018-04-30T07:13:42.315Z,18.30
2018-04-30T07:14:42.320Z,10.40
2018-04-30T07:15:42.276Z,16.40
2018-04-30T07:16:42.286Z,11.80
2018-04-30T07:17:42.224Z,12.10
2018-04-30T07:18:42.223Z,11.00
2018-04-30T07:19:42.172Z,10.40
2018-04-30T07:20:42.161Z,9.60
2018-04-30T07:21:42.138Z,8.90
2018-04-30T07:22:42.092Z,8.50
2018-04-30T07:23:42.123Z,12.90
2018-04-30T07:24:42.060Z,7.70
2018-04-30T07:25:42.095Z,7.60
2018-04-30T07:26:41.999Z,7.60
2018-04-30T07:27:42.040Z,9.90
2018-04-30T07:28:41.986Z,7.50
2018-04-30T07:29:41.931Z,8.10
2018-04-30T07:30:41.907Z,6.90
2018-04-30T07:31:41.917Z,6.40
2018-04-30T07:32:41.834Z,8.40
2018-04-30T07:33:41.918Z,6.30
2018-04-30T07:34:41.850Z,6.60
2018-04-30T07:35:41.863Z,6.40
2018-04-30T07:36:41.798Z,6.30
2018-04-30T07:37:41.746Z,5.10
2018-04-30T07:38:41.817Z,7.20
2018-04-30T07:39:41.703Z,6.30
2018-04-30T07:40:41.758Z,4.90
2018-04-30T07:41:41.675Z,7.30
2018-04-30T07:42:41.638Z,4.30
2018-04-30T07:43:41.632Z,5.10
2018-04-30T07:44:41.623Z,4.80
2018-04-30T07:45:41.578Z,5.00
2018-04-30T07:46:41.564Z,4.60
2018-04-30T07:47:41.529Z,4.10
2018-04-30T07:48:41.511Z,4.40
2018-04-30T07:49:41.437Z,4.30
2018-04-30T07:50:41.434Z,4.70
2018-04-30T07:51:42.074Z,4.20
2018-04-30T07:52:41.411Z,4.20
2018-04-30T07:53:41.377Z,3.80
2018-04-30T07:54:41.383Z,3.90
2018-04-30T07:55:41.368Z,4.00
2018-04-30T07:56:41.326Z,3.50
2018-04-30T07:57:41.324Z,3.90
2018-04-30T07:58:41.249Z,3.10
2018-04-30T07:59:41.225Z,4.20
2018-04-30T08:00:41.171Z,3.60
2018-04-30T08:01:41.288Z,3.40
2018-04-30T08:02:41.129Z,2.40
2018-04-30T08:03:41.184Z,2.90
2018-04-30T08:04:41.287Z,3.90
2018-04-30T08:05:41.304Z,3.30
2018-04-30T08:06:41.046Z,3.30
2018-04-30T08:07:41.498Z,4.30
2018-04-30T08:08:41.041Z,2.60
2018-04-30T08:09:41.105Z,2.80
2018-04-30T08:10:41.118Z,2.80
2018-04-30T08:11:40.964Z,2.90
2018-04-30T08:12:40.912Z,3.00
2018-04-30T08:13:41.031Z,2.60
2018-04-30T08:14:41.009Z,3.10
2018-04-30T08:15:40.918Z,2.20
2018-04-30T08:16:40.843Z,2.70
2018-04-30T08:17:40.853Z,2.40
2018-04-30T08:18:40.778Z,3.00
2018-04-30T08:19:40.793Z,2.90
2018-04-30T08:20:40.760Z,2.30
2018-04-30T08:21:40.664Z,2.10
2018-04-30T08:22:40.637Z,2.20
2018-04-30T08:23:40.644Z,2.40
2018-04-30T08:24:40.859Z,2.70
2018-04-30T08:25:40.827Z,2.10
2018-04-30T08:26:40.718Z,1.70
2018-04-30T08:27:40.615Z,1.80
2018-04-30T08:28:40.525Z,1.80
2018-04-30T08:29:40.517Z,1.60
2018-04-30T08:30:40.758Z,1.60
2018-04-30T08:31:40.445Z,1.50
2018-04-30T08:32:41.372Z,1.90
2018-04-30T08:33:43.514Z,1.60
2018-04-30T08:34:40.421Z,1.40
2018-04-30T08:35:40.467Z,1.50
2018-04-30T08:36:40.381Z,1.80
2018-04-30T08:37:41.198Z,1.70
2018-04-30T08:38:41.400Z,1.60
2018-04-30T08:39:40.235Z,1.40
2018-04-30T08:40:40.225Z,2.00
2018-04-30T08:41:40.171Z,1.70
2018-04-30T08:42:40.161Z,1.60
2018-04-30T08:43:40.156Z,1.70
2018-04-30T08:44:40.159Z,1.50
2018-04-30T08:45:40.084Z,1.60
2018-04-30T08:46:40.077Z,1.60
2018-04-30T08:47:40.068Z,1.80
2018-04-30T08:48:40.017Z,1.40
2018-04-30T08:49:40.087Z,1.20
2018-04-30T08:50:39.970Z,1.40
2018-04-30T08:51:39.998Z,1.50
2018-04-30T08:52:39.958Z,1.20
2018-04-30T08:53:39.885Z,1.30
2018-04-30T08:54:39.875Z,1.50
2018-04-30T08:55:39.882Z,1.60
2018-04-30T08:56:39.813Z,2.00
2018-04-30T08:57:39.799Z,1.80
2018-04-30T08:58:39.762Z,1.70
2018-04-30T08:59:39.759Z,1.50
2018-04-30T09:00:39.737Z,1.60
2018-04-30T09:01:39.715Z,1.70
2018-04-30T09:02:39.787Z,1.60
2018-04-30T09:03:39.663Z,1.00
2018-04-30T09:04:39.651Z,1.10
2018-04-30T09:05:39.602Z,1.10
2018-04-30T09:06:39.613Z,0.90
2018-04-30T09:07:39.571Z,0.90
2018-04-30T09:08:39.521Z,0.80
2018-04-30T09:09:39.535Z,1.00
2018-04-30T09:10:39.493Z,0.70
2018-04-30T09:11:39.486Z,0.90
2018-04-30T09:12:39.450Z,0.80
2018-04-30T09:13:39.452Z,0.80
2018-04-30T09:14:39.399Z,0.80
2018-04-30T09:15:39.363Z,1.00
2018-04-30T09:16:39.680Z,0.80
2018-04-30T09:17:39.323Z,0.90
2018-04-30T09:18:39.280Z,0.70
2018-04-30T09:19:39.263Z,0.90
2018-04-30T09:20:39.298Z,0.80
2018-04-30T09:21:39.225Z,1.00
2018-04-30T09:22:39.641Z,0.80
2018-04-30T09:23:39.242Z,0.60
2018-04-30T09:24:39.392Z,0.80
2018-04-30T09:25:39.116Z,1.00
2018-04-30T09:26:39.211Z,0.80
2018-04-30T09:27:39.061Z,0.80
2018-04-30T09:28:39.146Z,0.70
2018-04-30T09:29:39.096Z,0.70
2018-04-30T09:30:39.101Z,0.80
2018-04-30T09:31:38.960Z,1.00
2018-04-30T09:32:38.984Z,1.00
2018-04-30T09:33:38.927Z,1.00
2018-04-30T09:34:38.923Z,0.90
2018-04-30T09:35:38.971Z,0.80
2018-04-30T09:36:38.878Z,0.90
2018-04-30T09:37:38.835Z,1.40
2018-04-30T09:38:38.807Z,1.30
2018-04-30T09:39:38.788Z,1.50
2018-04-30T09:40:38.757Z,2.20
2018-04-30T09:41:38.734Z,2.40
2018-04-30T09:42:38.731Z,5.20
2018-04-30T09:43:38.682Z,6.60
2018-04-30T09:44:38.645Z,3.00
2018-04-30T09:45:38.643Z,2.60
2018-04-30T09:46:38.642Z,4.50
2018-04-30T09:47:38.569Z,7.70
2018-04-30T09:48:38.554Z,2.50
2018-04-30T09:49:38.539Z,6.10
2018-04-30T09:50:38.489Z,9.70
2018-04-30T09:51:38.473Z,2.00
2018-04-30T09:52:38.469Z,4.00
2018-04-30T09:53:38.422Z,5.50
2018-04-30T09:54:38.417Z,5.70
2018-04-30T09:55:38.392Z,2.60
2018-04-30T09:56:38.358Z,5.70
2018-04-30T09:57:39.090Z,11.00
2018-04-30T09:58:38.353Z,9.60
2018-04-30T09:59:38.326Z,3.50
2018-04-30T10:00:38.308Z,4.90
2018-04-30T10:01:38.244Z,10.20
2018-04-30T10:02:38.326Z,3.30
2018-04-30T10:03:38.162Z,4.70
2018-04-30T10:04:38.165Z,6.80
2018-04-30T10:05:38.333Z,5.90
2018-04-30T10:06:38.097Z,4.90
2018-04-30T10:07:38.112Z,6.90
2018-04-30T10:08:38.050Z,5.10
2018-04-30T10:09:38.075Z,4.60
2018-04-30T10:10:38.524Z,6.90
2018-04-30T10:11:37.983Z,2.80
2018-04-30T10:12:38.015Z,2.20
2018-04-30T10:13:37.968Z,4.90
2018-04-30T10:14:37.948Z,8.50
2018-04-30T10:15:37.962Z,15.30
2018-04-30T10:16:37.873Z,12.70
2018-04-30T10:17:37.890Z,19.90
2018-04-30T10:18:37.919Z,9.60
2018-04-30T10:19:37.827Z,5.70
2018-04-30T10:20:37.795Z,4.30
2018-04-30T10:21:37.757Z,2.50
2018-04-30T10:22:37.739Z,5.20
2018-04-30T10:23:37.739Z,4.70
2018-04-30T10:24:37.668Z,4.40
2018-04-30T10:25:37.644Z,6.60
2018-04-30T10:26:37.649Z,3.50
2018-04-30T10:27:37.620Z,3.30
2018-04-30T10:28:37.674Z,5.90
2018-04-30T10:29:37.555Z,4.70
2018-04-30T10:30:37.553Z,2.40
2018-04-30T10:31:37.507Z,2.80
2018-04-30T10:32:37.475Z,4.30
2018-04-30T10:33:37.930Z,5.50
2018-04-30T10:34:37.454Z,4.70
2018-04-30T10:35:37.443Z,1.20
2018-04-30T10:36:37.376Z,3.00
2018-04-30T10:37:37.355Z,2.00
2018-04-30T10:38:37.320Z,3.20
2018-04-30T10:39:38.038Z,3.80
2018-04-30T10:40:37.282Z,1.60
2018-04-30T10:41:37.294Z,2.70
2018-04-30T10:42:37.276Z,1.20
2018-04-30T10:43:37.210Z,2.40
2018-04-30T10:44:37.171Z,1.90
2018-04-30T10:45:37.165Z,1.30
2018-04-30T10:46:37.144Z,2.30
2018-04-30T10:47:37.116Z,3.80
2018-04-30T10:48:37.239Z,2.20
2018-04-30T10:49:37.107Z,2.60
2018-04-30T10:50:37.032Z,2.70
2018-04-30T10:51:37.073Z,3.00
2018-04-30T10:52:37.004Z,3.90
2018-04-30T10:53:36.972Z,1.80
2018-04-30T10:54:36.993Z,1.70
2018-04-30T10:55:36.947Z,2.10
2018-04-30T10:56:36.902Z,2.70
2018-04-30T10:57:36.940Z,1.10
2018-04-30T10:58:36.934Z,2.30
2018-04-30T10:59:36.920Z,1.20
2018-04-30T11:00:36.846Z,1.70
2018-04-30T11:01:36.850Z,1.80
2018-04-30T11:02:36.884Z,1.70
2018-04-30T11:03:36.739Z,1.60
2018-04-30T11:04:36.701Z,1.90
2018-04-30T11:05:36.738Z,2.00
2018-04-30T11:06:36.709Z,1.10
2018-04-30T11:07:36.627Z,2.20
2018-04-30T11:08:36.618Z,1.20
2018-04-30T11:09:36.601Z,1.80
2018-04-30T11:10:36.594Z,1.10
2018-04-30T11:11:36.758Z,2.00
2018-04-30T11:12:36.556Z,1.60
2018-04-30T11:13:36.538Z,2.30
2018-04-30T11:14:36.486Z,2.10
2018-04-30T11:15:36.501Z,1.60
2018-04-30T11:16:36.473Z,1.20
2018-04-30T11:17:36.477Z,0.80
2018-04-30T11:18:36.388Z,1.20
2018-04-30T11:19:36.380Z,1.10
2018-04-30T11:20:36.379Z,1.30
2018-04-30T11:21:36.347Z,1.50
2018-04-30T11:22:36.302Z,1.50
2018-04-30T11:23:36.311Z,1.00
2018-04-30T11:24:36.264Z,2.20
2018-04-30T11:25:36.224Z,3.30
2018-04-30T11:26:36.199Z,1.70
2018-04-30T11:27:37.162Z,0.90
2018-04-30T11:28:36.266Z,1.80
2018-04-30T11:29:36.186Z,2.00
2018-04-30T11:30:36.098Z,1.90
2018-04-30T11:31:36.139Z,5.40
2018-04-30T11:32:36.068Z,2.50
2018-04-30T11:33:36.094Z,5.10
2018-04-30T11:34:36.078Z,8.80
2018-04-30T11:35:35.999Z,9.40
2018-04-30T11:36:35.999Z,4.60
2018-04-30T11:37:35.999Z,8.70
2018-04-30T11:38:35.936Z,3.30
2018-04-30T11:39:35.949Z,5.60
2018-04-30T11:40:35.936Z,30.00
2018-04-30T11:41:35.863Z,11.50
2018-04-30T11:42:35.928Z,9.90
2018-04-30T11:43:35.844Z,6.40
2018-04-30T11:44:35.813Z,4.30
2018-04-30T11:45:35.854Z,3.30
2018-04-30T11:46:35.796Z,1.50
2018-04-30T11:47:36.584Z,2.80
2018-04-30T11:48:35.723Z,4.00
2018-04-30T11:49:35.718Z,1.00
2018-04-30T11:50:35.682Z,2.10
2018-04-30T11:51:35.620Z,2.90
2018-04-30T11:52:35.641Z,1.80
2018-04-30T11:53:35.638Z,1.50
2018-04-30T11:54:35.550Z,1.60
2018-04-30T11:55:35.606Z,1.60
2018-04-30T11:56:35.587Z,1.40
2018-04-30T11:57:35.514Z,1.20
2018-04-30T11:58:35.493Z,1.20
2018-04-30T11:59:35.473Z,0.80
2018-04-30T12:00:35.458Z,1.00
2018-04-30T12:01:35.386Z,1.00
2018-04-30T12:02:35.357Z,1.10
2018-04-30T12:03:35.397Z,0.90
2018-04-30T12:04:35.307Z,0.80
2018-04-30T12:05:35.333Z,1.00
2018-04-30T12:06:35.316Z,1.00
2018-04-30T12:07:35.264Z,0.80
2018-04-30T12:08:35.272Z,1.10
2018-04-30T12:09:35.243Z,0.90
2018-04-30T12:10:35.284Z,0.90
2018-04-30T12:11:35.149Z,0.70
2018-04-30T12:12:35.154Z,0.80
2018-04-30T12:13:35.137Z,0.80
2018-04-30T12:14:35.117Z,0.80
2018-04-30T12:15:35.122Z,0.70
2018-04-30T12:16:35.083Z,0.90
2018-04-30T12:17:35.123Z,0.80
2018-04-30T12:18:35.052Z,0.70
2018-04-30T12:19:34.976Z,0.70
2018-04-30T12:20:34.972Z,0.80
2018-04-30T12:21:34.961Z,0.70
2018-04-30T12:22:34.994Z,0.80
2018-04-30T12:23:34.938Z,0.70
2018-04-30T12:24:34.917Z,0.70
2018-04-30T12:25:34.846Z,1.20
2018-04-30T12:26:34.872Z,0.90
2018-04-30T12:27:34.826Z,0.60
2018-04-30T12:28:34.818Z,0.70
2018-04-30T12:29:34.767Z,0.80
2018-04-30T12:30:34.850Z,0.90
2018-04-30T12:31:34.893Z,0.70
2018-04-30T12:32:34.691Z,0.80
2018-04-30T12:33:34.681Z,0.90
2018-04-30T12:34:34.644Z,0.90
2018-04-30T12:35:34.679Z,0.80
2018-04-30T12:36:34.652Z,0.90
2018-04-30T12:37:34.568Z,0.80
2018-04-30T12:38:34.570Z,0.70
2018-04-30T12:39:34.590Z,0.90
2018-04-30T12:40:34.522Z,0.80
2018-04-30T12:41:34.436Z,0.90
2018-04-30T12:42:34.492Z,0.70
2018-04-30T12:43:34.429Z,0.90
2018-04-30T12:44:34.412Z,0.80
2018-04-30T12:45:34.371Z,0.70
2018-04-30T12:46:34.329Z,0.60
2018-04-30T12:47:34.428Z,0.90
2018-04-30T12:48:34.348Z,0.90
2018-04-30T12:49:34.334Z,1.00
2018-04-30T12:50:34.319Z,0.70
2018-04-30T12:51:34.278Z,0.70
2018-04-30T12:52:34.229Z,0.70
2018-04-30T12:53:34.283Z,0.80
2018-04-30T12:54:34.171Z,0.60
2018-04-30T12:55:34.167Z,0.60
2018-04-30T12:56:34.176Z,0.90
2018-04-30T12:57:34.118Z,0.70
2018-04-30T12:58:34.110Z,0.80
2018-04-30T12:59:34.079Z,0.90
2018-04-30T13:00:34.132Z,0.80
2018-04-30T13:01:34.126Z,0.70
2018-04-30T13:02:34.055Z,0.60
2018-04-30T13:03:34.007Z,0.70
2018-04-30T13:04:33.943Z,0.90
2018-04-30T13:05:33.888Z,0.80
2018-04-30T13:06:33.863Z,0.90
2018-04-30T13:07:33.856Z,0.60
2018-04-30T13:08:33.825Z,0.70